DOC weather

Dornoch Airfield
Dornoch, Scotland, United Kingdom

Public forecast

Using degrees Celsius for public forecast. Weather courtesy of forecast.io.

Closest aviation weather report (METAR) to Dornoch Airfield

Closest report is Inverness Airport, 19.6 nm (36.3 km) S. Retrieved 2020/05/27 02:20 UTC (5 minutes ago):

EGPE 270220Z 22004KT 9999 FEW012 08/05 Q1036

Closest aviation forecast (TAF) to Dornoch Airfield

Forecast is more than 6 hours old.

Closest forecast is RAF Kinloss, 19.8 nm (36.7 km) SE. Retrieved 2020/05/26 17:56 UTC (8 hours ago):

TAF EGQK 261748Z 2617/2709 CNL TAF EGQK 261749Z 2618/2712 CNL